createdAt,value
2022-12-01T00:02:16.800Z,99592.41
2022-12-01T00:04:43.526Z,99589.52
2022-12-01T00:07:10.955Z,99584.98
2022-12-01T00:09:53.230Z,99584.00
2022-12-01T00:12:19.863Z,99577.08
2022-12-01T00:14:54.811Z,99578.79
2022-12-01T00:17:21.861Z,99581.35
2022-12-01T00:19:48.609Z,99577.95
2022-12-01T00:22:15.389Z,99579.88
2022-12-01T00:24:42.017Z,99583.70
2022-12-01T00:27:08.774Z,99582.12
2022-12-01T00:29:35.470Z,99584.50
2022-12-01T00:32:02.293Z,99581.94
2022-12-01T00:34:29.125Z,99584.83
2022-12-01T00:36:55.927Z,99583.86
2022-12-01T00:39:22.668Z,99587.73
2022-12-01T00:41:49.340Z,99593.31
2022-12-01T00:44:16.286Z,99596.20
2022-12-01T00:46:43.073Z,99597.18
2022-12-01T00:49:13.901Z,99593.56
2022-12-01T00:51:40.566Z,99587.97
2022-12-01T00:54:07.321Z,99586.67
2022-12-01T00:56:34.027Z,99587.99
2022-12-01T00:59:00.708Z,99587.14
2022-12-01T01:01:27.606Z,99585.80
2022-12-01T01:03:54.271Z,99581.38
2022-12-01T01:06:20.883Z,99579.25
2022-12-01T01:08:47.549Z,99576.84
2022-12-01T01:11:14.249Z,99577.08
2022-12-01T01:13:41.036Z,99577.88
2022-12-01T01:16:14.437Z,99581.55
2022-12-01T01:18:41.247Z,99573.17
2022-12-01T01:21:11.135Z,99565.50
2022-12-01T01:23:38.494Z,99569.30
2022-12-01T01:26:10.646Z,99568.69
2022-12-01T01:28:37.505Z,99564.33
2022-12-01T01:31:07.212Z,99569.22
2022-12-01T01:33:34.147Z,99566.85
2022-12-01T01:36:01.849Z,99568.27
2022-12-01T01:38:30.005Z,99566.52
2022-12-01T01:40:56.760Z,99569.77
2022-12-01T01:43:46.289Z,99566.79
2022-12-01T01:46:20.047Z,99565.97
2022-12-01T01:48:53.523Z,99561.16
2022-12-01T01:51:27.148Z,99556.40
2022-12-01T01:53:58.869Z,99550.46
2022-12-01T01:56:25.617Z,99545.49
2022-12-01T01:58:53.535Z,99547.55
2022-12-01T02:01:20.696Z,99549.19
2022-12-01T02:03:49.628Z,99549.95
2022-12-01T02:06:16.768Z,99549.85
2022-12-01T02:08:43.480Z,99552.09
2022-12-01T02:11:26.377Z,99549.08
2022-12-01T02:14:14.760Z,99545.19
2022-12-01T02:16:47.416Z,99546.19
2022-12-01T02:19:35.166Z,99544.25
2022-12-01T02:22:17.221Z,99549.80
2022-12-01T02:25:14.761Z,99550.38
2022-12-01T02:28:04.462Z,99550.08
2022-12-01T02:30:34.489Z,99550.59
2022-12-01T02:33:12.070Z,99550.48
2022-12-01T02:35:38.745Z,99548.30
2022-12-01T02:38:21.733Z,99549.61
2022-12-01T02:41:07.208Z,99549.71
2022-12-01T02:43:40.448Z,99548.98
2022-12-01T02:46:24.369Z,99549.11
2022-12-01T02:48:54.200Z,99547.86
2022-12-01T02:51:29.021Z,99550.52
2022-12-01T02:53:58.602Z,99552.19
2022-12-01T02:56:25.631Z,99552.16
2022-12-01T02:58:52.373Z,99547.70
2022-12-01T03:01:29.781Z,99547.13
2022-12-01T03:04:00.862Z,99547.58
2022-12-01T03:06:52.755Z,99549.86
2022-12-01T03:09:27.986Z,99539.74
2022-12-01T03:11:58.119Z,99533.84
2022-12-01T03:14:43.667Z,99533.73
2022-12-01T03:17:16.646Z,99534.45
2022-12-01T03:19:43.711Z,99525.92
2022-12-01T03:22:14.822Z,99530.33
2022-12-01T03:24:47.127Z,99528.02
2022-12-01T03:27:18.603Z,99527.30
2022-12-01T03:29:50.651Z,99521.51
2022-12-01T03:32:23.064Z,99519.04
2022-12-01T03:34:57.100Z,99517.09
2022-12-01T03:37:39.108Z,99516.98
2022-12-01T03:40:10.371Z,99513.14
2022-12-01T03:42:41.158Z,99510.77
2022-12-01T03:45:11.998Z,99512.75
2022-12-01T03:47:40.449Z,99515.23
2022-12-01T03:50:13.361Z,99517.59
2022-12-01T03:52:53.919Z,99518.79
2022-12-01T03:55:26.153Z,99517.07
2022-12-01T03:58:11.508Z,99519.02
2022-12-01T04:00:38.965Z,99514.88
2022-12-01T04:03:06.245Z,99517.23
2022-12-01T04:05:34.904Z,99517.83
2022-12-01T04:08:02.136Z,99516.98
2022-12-01T04:10:29.052Z,99511.73
2022-12-01T04:12:59.530Z,99510.21
2022-12-01T04:15:27.683Z,99506.23
2022-12-01T04:17:54.620Z,99501.50
2022-12-01T04:20:22.131Z,99501.11
2022-12-01T04:22:49.254Z,99501.49
2022-12-01T04:25:15.989Z,99498.47
2022-12-01T04:27:42.751Z,99497.94
2022-12-01T04:30:10.961Z,99497.20
2022-12-01T04:32:40.078Z,99495.45
2022-12-01T04:35:08.846Z,99497.71
2022-12-01T04:37:35.599Z,99499.17
2022-12-01T04:40:02.361Z,99499.34
2022-12-01T04:42:29.063Z,99504.69
2022-12-01T04:44:55.729Z,99501.36
2022-12-01T04:47:22.426Z,99503.34
2022-12-01T04:49:49.667Z,99501.23
2022-12-01T04:52:16.558Z,99503.48
2022-12-01T04:54:43.201Z,99502.65
2022-12-01T04:57:09.942Z,99507.03
2022-12-01T04:59:36.929Z,99506.86
2022-12-01T05:02:04.318Z,99509.34
2022-12-01T05:04:32.660Z,99511.58
2022-12-01T05:06:59.632Z,99510.52
2022-12-01T05:09:26.363Z,99513.48
2022-12-01T05:11:53.109Z,99505.15
2022-12-01T05:14:19.800Z,99518.95
2022-12-01T05:16:46.555Z,99513.84
2022-12-01T05:19:28.714Z,99509.14
2022-12-01T05:21:55.488Z,99507.55
2022-12-01T05:24:22.587Z,99509.52
2022-12-01T05:26:49.392Z,99506.75
2022-12-01T05:29:16.431Z,99509.96
2022-12-01T05:31:43.250Z,99511.17
2022-12-01T05:34:09.964Z,99510.02
2022-12-01T05:36:36.718Z,99512.77
2022-12-01T05:39:05.154Z,99511.20
2022-12-01T05:41:32.050Z,99511.95
2022-12-01T05:43:58.887Z,99508.89
2022-12-01T05:46:25.779Z,99508.40
2022-12-01T05:48:52.491Z,99510.52
2022-12-01T05:51:19.210Z,99506.88
2022-12-01T05:53:46.068Z,99512.63
2022-12-01T05:56:12.899Z,99513.56
2022-12-01T05:58:40.564Z,99513.96
2022-12-01T06:01:08.087Z,99519.35
2022-12-01T06:03:34.936Z,99519.83
2022-12-01T06:06:01.984Z,99521.18
2022-12-01T06:08:28.727Z,99524.01
2022-12-01T06:10:55.548Z,99525.52
2022-12-01T06:13:22.332Z,99528.33
2022-12-01T06:15:58.012Z,99531.98
2022-12-01T06:18:26.344Z,99538.02
2022-12-01T06:20:53.206Z,99536.89
2022-12-01T06:23:19.981Z,99539.16
2022-12-01T06:25:46.739Z,99543.22
2022-12-01T06:28:13.514Z,99543.81
2022-12-01T06:30:40.296Z,99541.54
2022-12-01T06:33:07.176Z,99541.00
2022-12-01T06:35:34.618Z,99547.80
2022-12-01T06:38:02.011Z,99547.11
2022-12-01T06:40:28.813Z,99544.66
2022-12-01T06:42:55.650Z,99543.72
2022-12-01T06:45:22.360Z,99542.45
2022-12-01T06:47:53.984Z,99544.53
2022-12-01T06:50:20.786Z,99542.42
2022-12-01T06:52:48.125Z,99542.05
2022-12-01T06:55:15.445Z,99543.42
2022-12-01T06:57:43.540Z,99546.96
2022-12-01T07:00:11.563Z,99548.69
2022-12-01T07:02:39.435Z,99555.20
2022-12-01T07:05:06.642Z,99554.89
2022-12-01T07:07:36.093Z,99555.73
2022-12-01T07:10:03.390Z,99559.91
2022-12-01T07:12:30.787Z,99558.99
2022-12-01T07:14:58.240Z,99559.80
2022-12-01T07:17:25.154Z,99567.06
2022-12-01T07:19:52.056Z,99562.43
2022-12-01T07:22:19.276Z,99558.98
2022-12-01T07:24:45.995Z,99561.98
2022-12-01T07:27:12.735Z,99562.65
2022-12-01T07:29:39.463Z,99568.59
2022-12-01T07:32:06.131Z,99569.58
2022-12-01T07:34:32.871Z,99567.33
2022-12-01T07:36:59.593Z,99570.55
2022-12-01T07:39:26.371Z,99573.02
2022-12-01T07:41:53.107Z,99570.89
2022-12-01T07:44:19.843Z,99567.33
2022-12-01T07:46:46.668Z,99563.85
2022-12-01T07:49:15.718Z,99570.20
2022-12-01T07:51:42.541Z,99572.91
2022-12-01T07:54:10.865Z,99569.06
2022-12-01T07:56:37.781Z,99569.11
2022-12-01T07:59:04.668Z,99572.52
2022-12-01T08:01:31.495Z,99568.45
2022-12-01T08:03:59.384Z,99569.39
2022-12-01T08:06:27.150Z,99575.51
2022-12-01T08:08:54.049Z,99574.23
2022-12-01T08:11:23.988Z,99572.39
2022-12-01T08:13:51.964Z,99572.58
2022-12-01T08:16:22.512Z,99572.58
2022-12-01T08:18:49.886Z,99569.58
2022-12-01T08:21:19.003Z,99572.40
2022-12-01T08:23:45.901Z,99573.36
2022-12-01T08:26:15.538Z,99572.08
2022-12-01T08:28:43.152Z,99570.38
2022-12-01T08:31:16.808Z,99575.11
2022-12-01T08:33:43.926Z,99575.91
2022-12-01T08:36:11.050Z,99577.75
2022-12-01T08:38:38.264Z,99582.89
2022-12-01T08:41:07.696Z,99585.77
2022-12-01T08:46:29.140Z,99592.25
2022-12-01T08:48:57.818Z,99592.73
2022-12-01T08:51:25.931Z,99595.23
2022-12-01T08:53:53.148Z,99596.63
2022-12-01T08:56:24.265Z,99595.55
2022-12-01T08:58:51.836Z,99593.70
2022-12-01T09:01:19.834Z,99590.00
2022-12-01T09:03:46.870Z,99589.59
2022-12-01T09:06:17.383Z,99589.26
2022-12-01T09:08:44.545Z,99588.59
2022-12-01T09:11:15.242Z,99590.02
2022-12-01T09:13:43.625Z,99585.08
2022-12-01T09:16:13.039Z,99581.88
2022-12-01T09:18:40.196Z,99578.10
2022-12-01T09:21:11.106Z,99576.39
2022-12-01T09:23:38.142Z,99570.79
2022-12-01T09:26:05.324Z,99572.53
2022-12-01T09:28:33.327Z,99568.59
2022-12-01T09:31:05.380Z,99570.02
2022-12-01T09:33:32.256Z,99567.80
2022-12-01T09:35:59.769Z,99564.38
2022-12-01T09:38:28.370Z,99564.44
2022-12-01T09:40:56.149Z,99560.80
2022-12-01T09:43:28.107Z,99553.80
2022-12-01T09:46:02.321Z,99556.58
2022-12-01T09:48:34.617Z,99560.15
2022-12-01T09:51:01.530Z,99556.02
2022-12-01T09:53:29.722Z,99555.04
2022-12-01T09:56:03.068Z,99556.07
2022-12-01T09:58:34.038Z,99552.04
2022-12-01T10:01:00.865Z,99550.02
2022-12-01T10:03:35.440Z,99548.25
2022-12-01T10:06:27.348Z,99549.48
2022-12-01T10:09:03.589Z,99551.22
2022-12-01T10:11:33.679Z,99549.85
2022-12-01T10:14:01.060Z,99544.58
2022-12-01T10:16:36.049Z,99543.73
2022-12-01T10:19:12.834Z,99547.43
2022-12-01T10:22:00.785Z,99543.59
2022-12-01T10:24:58.265Z,99541.19
2022-12-01T10:27:48.176Z,99539.84
2022-12-01T10:30:18.667Z,99537.46
2022-12-01T10:33:09.043Z,99542.59
2022-12-01T10:35:37.819Z,99541.61
2022-12-01T10:38:13.415Z,99540.80
2022-12-01T10:40:42.750Z,99536.94
2022-12-01T10:43:10.761Z,99532.26
2022-12-01T10:45:42.528Z,99527.69
2022-12-01T10:48:09.472Z,99527.28
2022-12-01T10:50:37.121Z,99525.76
2022-12-01T10:53:04.746Z,99522.48
2022-12-01T10:55:40.812Z,99522.92
2022-12-01T10:58:17.331Z,99529.95
2022-12-01T11:00:59.579Z,99524.38
2022-12-01T11:03:34.935Z,99521.86
2022-12-01T11:06:04.877Z,99525.52
2022-12-01T11:08:47.065Z,99520.09
2022-12-01T11:11:31.526Z,99519.87
2022-12-01T11:13:59.595Z,99515.67
2022-12-01T11:16:44.077Z,99518.08
2022-12-01T11:19:27.762Z,99515.17
2022-12-01T11:21:58.556Z,99509.05
2022-12-01T11:24:29.181Z,99506.64
2022-12-01T11:26:58.499Z,99503.33
2022-12-01T11:29:30.511Z,99504.84
2022-12-01T11:31:58.929Z,99506.70
2022-12-01T11:34:31.160Z,99501.24
2022-12-01T11:37:01.275Z,99504.23
2022-12-01T11:39:32.711Z,99501.98
2022-12-01T11:42:07.278Z,99507.50
2022-12-01T11:44:50.985Z,99504.36
2022-12-01T11:47:24.398Z,99501.30
2022-12-01T11:49:55.213Z,99497.48
2022-12-01T11:52:24.095Z,99499.60
2022-12-01T11:54:59.041Z,99503.75
2022-12-01T11:57:36.395Z,99503.29
2022-12-01T12:00:13.902Z,99501.33
2022-12-01T12:02:53.299Z,99500.30
2022-12-01T12:05:35.408Z,99500.25
2022-12-01T12:08:21.015Z,99499.52
2022-12-01T12:10:56.039Z,99500.14
2022-12-01T12:13:34.579Z,99502.92
2022-12-01T12:16:12.602Z,99506.38
2022-12-01T12:18:58.424Z,99510.73
2022-12-01T12:21:42.510Z,99508.48
2022-12-01T12:24:33.167Z,99509.24
2022-12-01T12:27:23.898Z,99512.86
2022-12-01T12:30:14.689Z,99511.29
2022-12-01T12:33:00.433Z,99510.61
2022-12-01T12:35:42.911Z,99506.58
2022-12-01T12:38:25.106Z,99512.64
2022-12-01T12:41:06.065Z,99509.56
2022-12-01T12:43:46.991Z,99510.50
2022-12-01T12:46:26.756Z,99510.54
2022-12-01T12:49:25.247Z,99513.50
2022-12-01T12:51:56.021Z,99517.25
2022-12-01T12:54:27.517Z,99516.59
2022-12-01T12:57:00.850Z,99511.27
2022-12-01T12:59:37.227Z,99510.01
2022-12-01T13:02:20.190Z,99510.27
2022-12-01T13:05:06.822Z,99514.16
2022-12-01T13:07:38.086Z,99517.09
2022-12-01T13:10:23.236Z,99520.89
2022-12-01T13:12:57.787Z,99516.92
2022-12-01T13:15:26.344Z,99516.62
2022-12-01T13:17:58.646Z,99517.03
2022-12-01T13:20:28.048Z,99518.82
2022-12-01T13:22:58.877Z,99519.58
2022-12-01T13:25:30.818Z,99515.50
2022-12-01T13:28:00.506Z,99513.63
2022-12-01T13:30:28.001Z,99510.34
2022-12-01T13:33:02.355Z,99510.30
2022-12-01T13:35:29.089Z,99512.52
2022-12-01T13:38:13.956Z,99510.85
2022-12-01T13:40:40.748Z,99510.52
2022-12-01T13:43:17.977Z,99510.73
2022-12-01T13:45:45.140Z,99509.63
2022-12-01T13:48:47.087Z,99512.45
2022-12-01T13:51:14.066Z,99510.82
2022-12-01T13:54:01.501Z,99508.35
2022-12-01T13:56:45.325Z,99510.11
2022-12-01T13:59:43.325Z,99509.73
2022-12-01T14:02:18.209Z,99513.34
2022-12-01T14:04:45.193Z,99514.32
2022-12-01T14:07:19.764Z,99513.41
2022-12-01T14:09:51.090Z,99513.28
2022-12-01T14:12:22.183Z,99515.91
2022-12-01T14:14:57.408Z,99514.48
2022-12-01T14:17:29.557Z,99513.02
2022-12-01T14:20:18.101Z,99509.83
2022-12-01T14:22:47.171Z,99516.16
2022-12-01T14:25:26.986Z,99510.83
2022-12-01T14:27:57.761Z,99512.66
2022-12-01T14:30:48.358Z,99518.11
2022-12-01T14:33:43.429Z,99519.13
2022-12-01T14:36:28.840Z,99516.65
2022-12-01T14:39:01.622Z,99513.00
2022-12-01T14:41:33.608Z,99512.67
2022-12-01T14:44:10.934Z,99513.29
2022-12-01T14:46:45.048Z,99514.06
2022-12-01T14:49:15.610Z,99515.45
2022-12-01T14:51:46.128Z,99518.70
2022-12-01T14:54:22.674Z,99514.98
2022-12-01T14:56:52.902Z,99511.40
2022-12-01T14:59:23.064Z,99514.02
2022-12-01T15:01:52.797Z,99513.20
2022-12-01T15:04:19.868Z,99514.30
2022-12-01T15:06:47.554Z,99512.28
2022-12-01T15:12:07.747Z,99515.65
2022-12-01T15:14:47.204Z,99512.23
2022-12-01T15:17:31.267Z,99511.35
2022-12-01T15:19:59.056Z,99512.80
2022-12-01T15:22:31.194Z,99511.38
2022-12-01T15:25:15.195Z,99515.34
2022-12-01T15:27:43.383Z,99514.84
2022-12-01T15:30:14.947Z,99510.36
2022-12-01T15:32:45.815Z,99511.56
2022-12-01T15:35:20.629Z,99516.38
2022-12-01T15:37:48.150Z,99517.38
2022-12-01T15:41:06.141Z,99508.83
2022-12-01T15:43:14.563Z,99518.14
2022-12-01T15:45:46.253Z,99514.59
2022-12-01T15:48:16.799Z,99516.52
2022-12-01T15:50:49.102Z,99516.39
2022-12-01T15:53:24.293Z,99518.75
2022-12-01T15:55:58.364Z,99516.93
2022-12-01T15:58:30.391Z,99516.62
2022-12-01T16:01:00.729Z,99519.20
2022-12-01T16:03:28.336Z,99522.45
2022-12-01T16:05:56.539Z,99519.48
2022-12-01T16:08:26.620Z,99517.77
2022-12-01T16:11:14.036Z,99519.55
2022-12-01T16:13:56.299Z,99516.56
2022-12-01T16:16:43.735Z,99518.28
2022-12-01T16:19:10.524Z,99517.81
2022-12-01T16:21:54.777Z,99512.17
2022-12-01T16:24:29.355Z,99516.27
2022-12-01T16:27:01.553Z,99518.63
2022-12-01T16:29:31.458Z,99517.88
2022-12-01T16:32:26.142Z,99513.81
2022-12-01T16:34:53.528Z,99512.46
2022-12-01T16:37:21.812Z,99506.50
2022-12-01T16:39:48.892Z,99504.42
2022-12-01T16:42:18.905Z,99513.09
2022-12-01T16:44:46.603Z,99511.52
2022-12-01T16:47:17.253Z,99508.36
2022-12-01T16:49:44.071Z,99512.83
2022-12-01T16:54:58.006Z,99509.88
2022-12-01T16:57:24.686Z,99508.38
2022-12-01T16:59:51.467Z,99507.18
2022-12-01T17:02:18.243Z,99513.63
2022-12-01T17:04:44.955Z,99510.55
2022-12-01T17:07:11.733Z,99512.14
2022-12-01T17:09:38.481Z,99515.17
2022-12-01T17:12:05.975Z,99513.52
2022-12-01T17:14:33.257Z,99508.35
2022-12-01T17:17:05.415Z,99509.38
2022-12-01T17:19:32.468Z,99510.31
2022-12-01T17:21:59.376Z,99509.10
2022-12-01T17:24:26.080Z,99512.02
2022-12-01T17:26:52.758Z,99511.81
2022-12-01T17:29:19.471Z,99514.81
2022-12-01T17:31:46.192Z,99512.91
2022-12-01T17:34:12.874Z,99515.89
2022-12-01T17:36:39.643Z,99513.79
2022-12-01T17:39:07.524Z,99515.30
2022-12-01T17:41:35.841Z,99512.63
2022-12-01T17:44:04.286Z,99509.64
2022-12-01T17:46:31.966Z,99501.58
2022-12-01T17:49:00.997Z,99503.81
2022-12-01T17:51:27.763Z,99506.22
2022-12-01T17:53:54.566Z,99511.27
2022-12-01T17:56:21.750Z,99504.23
2022-12-01T17:58:50.536Z,99503.70
2022-12-01T18:01:19.284Z,99503.86
2022-12-01T18:03:46.875Z,99504.48
2022-12-01T18:06:14.878Z,99506.95
2022-12-01T18:08:42.281Z,99506.11
2022-12-01T18:11:11.828Z,99508.81
2022-12-01T18:13:40.887Z,99508.76
2022-12-01T18:16:10.063Z,99504.21
2022-12-01T18:18:37.723Z,99509.98
2022-12-01T18:21:06.731Z,99504.98
2022-12-01T18:23:34.001Z,99507.25
2022-12-01T18:26:10.769Z,99503.53
2022-12-01T18:28:40.770Z,99509.08
2022-12-01T18:31:11.067Z,99507.36
2022-12-01T18:33:40.157Z,99508.75
2022-12-01T18:36:13.887Z,99503.14
2022-12-01T18:38:41.325Z,99502.98
2022-12-01T18:41:08.468Z,99512.55
2022-12-01T18:43:36.679Z,99511.64
2022-12-01T18:46:05.326Z,99513.29
2022-12-01T18:48:33.347Z,99512.96
2022-12-01T18:51:03.432Z,99508.64
2022-12-01T18:53:30.332Z,99508.27
2022-12-01T18:55:57.354Z,99506.36
2022-12-01T18:58:23.992Z,99507.77
2022-12-01T19:00:50.806Z,99504.27
2022-12-01T19:03:17.650Z,99505.23
2022-12-01T19:05:44.452Z,99501.90
2022-12-01T19:08:11.220Z,99505.58
2022-12-01T19:10:38.117Z,99509.13
2022-12-01T19:13:04.886Z,99504.64
2022-12-01T19:15:31.559Z,99504.64
2022-12-01T19:17:58.251Z,99508.80
2022-12-01T19:20:24.990Z,99500.19
2022-12-01T19:22:51.661Z,99498.39
2022-12-01T19:25:18.429Z,99499.63
2022-12-01T19:27:45.377Z,99499.29
2022-12-01T19:30:12.560Z,99497.60
2022-12-01T19:32:40.051Z,99495.96
2022-12-01T19:35:07.944Z,99496.02
2022-12-01T19:37:34.598Z,99493.76
2022-12-01T19:40:01.460Z,99496.07
2022-12-01T19:42:30.221Z,99498.98
2022-12-01T19:44:57.364Z,99500.01
2022-12-01T19:47:24.067Z,99497.36
2022-12-01T19:49:50.845Z,99498.83
2022-12-01T19:52:18.914Z,99497.80
2022-12-01T19:54:45.607Z,99499.83
2022-12-01T19:57:12.297Z,99496.16
2022-12-01T19:59:39.091Z,99499.67
2022-12-01T20:02:06.058Z,99492.42
2022-12-01T20:04:33.578Z,99491.13
2022-12-01T20:07:00.790Z,99490.71
2022-12-01T20:09:27.459Z,99485.48
2022-12-01T20:11:54.282Z,99485.42
2022-12-01T20:14:21.089Z,99484.58
2022-12-01T20:16:48.133Z,99485.10
2022-12-01T20:19:15.005Z,99483.59
2022-12-01T20:21:43.543Z,99480.02
2022-12-01T20:24:13.990Z,99481.82
2022-12-01T20:26:44.582Z,99486.23
2022-12-01T20:29:15.794Z,99478.68
2022-12-01T20:31:44.048Z,99486.09
2022-12-01T20:34:18.948Z,99487.71
2022-12-01T20:36:46.457Z,99479.84
2022-12-01T20:39:14.546Z,99479.29
2022-12-01T20:41:42.903Z,99482.41
2022-12-01T20:44:11.854Z,99484.06
2022-12-01T20:46:41.036Z,99481.85
2022-12-01T20:49:08.396Z,99479.23
2022-12-01T20:51:35.149Z,99475.88
2022-12-01T20:54:27.371Z,99476.27
2022-12-01T20:56:50.313Z,99480.52
2022-12-01T20:59:16.993Z,99483.85
2022-12-01T21:01:44.336Z,99483.71
2022-12-01T21:04:11.039Z,99486.61
2022-12-01T21:06:37.743Z,99483.95
2022-12-01T21:09:05.113Z,99484.11
2022-12-01T21:11:59.188Z,99484.41
2022-12-01T21:14:31.611Z,99481.13
2022-12-01T21:17:08.556Z,99480.88
2022-12-01T21:19:43.149Z,99480.05
2022-12-01T21:22:12.849Z,99480.77
2022-12-01T21:24:43.730Z,99481.13
2022-12-01T21:27:15.219Z,99480.70
2022-12-01T21:29:46.128Z,99484.70
2022-12-01T21:32:15.546Z,99482.23
2022-12-01T21:34:44.009Z,99480.71
2022-12-01T21:37:23.026Z,99481.67
2022-12-01T21:39:51.703Z,99484.45
2022-12-01T21:42:21.654Z,99485.77
2022-12-01T21:44:49.130Z,99487.02
2022-12-01T21:47:20.281Z,99484.39
2022-12-01T21:49:51.013Z,99483.71
2022-12-01T21:52:30.059Z,99485.55
2022-12-01T21:55:09.189Z,99484.93
2022-12-01T21:57:42.917Z,99488.13
2022-12-01T22:00:26.743Z,99484.52
2022-12-01T22:03:00.313Z,99482.36
2022-12-01T22:05:36.784Z,99478.02
2022-12-01T22:08:11.790Z,99479.98
2022-12-01T22:10:56.294Z,99471.64
2022-12-01T22:13:24.958Z,99475.09
2022-12-01T22:15:53.144Z,99476.95
2022-12-01T22:18:23.763Z,99475.18
2022-12-01T22:20:50.421Z,99474.02
2022-12-01T22:23:19.215Z,99471.65
2022-12-01T22:25:46.415Z,99471.88
2022-12-01T22:28:23.713Z,99470.63
2022-12-01T22:30:50.437Z,99473.34
2022-12-01T22:33:21.415Z,99468.19
2022-12-01T22:35:50.331Z,99467.37
2022-12-01T22:38:35.482Z,99470.76
2022-12-01T22:41:07.412Z,99472.57
2022-12-01T22:43:43.472Z,99470.16
2022-12-01T22:46:20.497Z,99470.17
2022-12-01T22:48:51.837Z,99468.27
2022-12-01T22:51:39.846Z,99471.45
2022-12-01T22:54:06.697Z,99464.14
2022-12-01T22:56:38.254Z,99460.02
2022-12-01T22:59:15.969Z,99463.63
2022-12-01T23:01:59.028Z,99457.73
2022-12-01T23:04:33.292Z,99461.66
2022-12-01T23:07:07.924Z,99457.30
2022-12-01T23:09:41.056Z,99450.70
2022-12-01T23:12:11.043Z,99451.17
2022-12-01T23:14:43.088Z,99451.69
2022-12-01T23:17:18.846Z,99452.46
2022-12-01T23:19:45.660Z,99449.67
2022-12-01T23:22:14.731Z,99452.87
2022-12-01T23:24:41.414Z,99451.88
2022-12-01T23:27:08.156Z,99450.13
2022-12-01T23:29:34.920Z,99452.22
2022-12-01T23:32:01.710Z,99450.91
2022-12-01T23:34:28.832Z,99453.04
2022-12-01T23:36:56.240Z,99449.86
2022-12-01T23:39:32.116Z,99449.21
2022-12-01T23:41:59.180Z,99448.20
2022-12-01T23:44:45.678Z,99445.14
2022-12-01T23:47:19.634Z,99442.38
2022-12-01T23:49:47.967Z,99447.94
2022-12-01T23:52:20.144Z,99445.36
2022-12-01T23:54:47.598Z,99442.85
2022-12-01T23:57:24.728Z,99446.47
2022-12-01T23:59:55.258Z,99444.83
